createdAt,value
2022-07-29T00:00:47.300Z,3.03
2022-07-29T00:03:16.305Z,3.65
2022-07-29T00:05:46.312Z,3.28
2022-07-29T00:08:16.570Z,3.40
2022-07-29T00:10:45.133Z,3.13
2022-07-29T00:13:13.721Z,3.40
2022-07-29T00:15:42.356Z,3.60
2022-07-29T00:18:10.886Z,3.10
2022-07-29T00:20:39.462Z,3.28
2022-07-29T00:23:09.369Z,3.45
2022-07-29T00:25:42.388Z,3.47
2022-07-29T00:30:58.614Z,3.30
2022-07-29T00:33:27.272Z,3.25
2022-07-29T00:35:54.814Z,3.30
2022-07-29T00:38:24.979Z,3.53
2022-07-29T00:40:53.626Z,3.50
2022-07-29T00:43:22.092Z,3.55
2022-07-29T00:45:50.573Z,3.17
2022-07-29T00:48:19.186Z,4.22
2022-07-29T00:50:47.700Z,3.85
2022-07-29T00:53:16.228Z,4.53
2022-07-29T00:55:46.263Z,4.03
2022-07-29T00:58:15.548Z,4.30
2022-07-29T01:00:45.651Z,4.32
2022-07-29T01:03:14.840Z,3.95
2022-07-29T01:05:48.464Z,3.92
2022-07-29T01:08:20.558Z,4.18
2022-07-29T01:10:51.489Z,4.45
2022-07-29T01:13:21.072Z,4.43
2022-07-29T01:15:57.542Z,3.92
2022-07-29T01:18:34.058Z,4.00
2022-07-29T01:21:30.036Z,3.85
2022-07-29T01:24:31.416Z,3.75
2022-07-29T01:27:06.833Z,4.13
2022-07-29T01:29:44.033Z,3.67
2022-07-29T01:32:27.819Z,4.00
2022-07-29T01:35:05.615Z,3.55
2022-07-29T01:37:40.654Z,3.15
2022-07-29T01:40:18.136Z,3.53
2022-07-29T01:42:51.662Z,3.83
2022-07-29T01:45:25.946Z,4.40
2022-07-29T01:48:02.948Z,3.75
2022-07-29T01:50:36.929Z,4.28
2022-07-29T01:53:09.804Z,3.67
2022-07-29T01:55:42.771Z,4.43
2022-07-29T01:58:13.272Z,3.72
2022-07-29T02:00:44.506Z,3.92
2022-07-29T02:03:16.942Z,3.83
2022-07-29T02:05:48.234Z,4.22
2022-07-29T02:08:20.701Z,3.75
2022-07-29T02:10:50.690Z,4.05
2022-07-29T02:13:20.974Z,4.18
2022-07-29T02:15:52.536Z,4.40
2022-07-29T02:18:25.352Z,4.03
2022-07-29T02:20:58.264Z,3.90
2022-07-29T02:23:28.647Z,3.70
2022-07-29T02:25:59.272Z,4.03
2022-07-29T02:28:30.944Z,3.80
2022-07-29T02:31:04.489Z,3.45
2022-07-29T02:33:34.369Z,3.80
2022-07-29T02:36:05.370Z,3.25
2022-07-29T02:38:58.526Z,3.67
2022-07-29T02:41:31.495Z,3.58
2022-07-29T02:44:11.134Z,3.22
2022-07-29T02:46:48.737Z,3.80
2022-07-29T02:49:26.400Z,3.88
2022-07-29T02:52:00.533Z,3.63
2022-07-29T02:54:39.611Z,3.55
2022-07-29T02:57:18.237Z,3.42
2022-07-29T02:59:50.386Z,3.83
2022-07-29T03:02:20.830Z,4.65
2022-07-29T03:04:51.371Z,3.47
2022-07-29T03:07:22.515Z,4.30
2022-07-29T03:09:52.181Z,4.00
2022-07-29T03:12:21.334Z,4.05
2022-07-29T03:14:50.597Z,4.18
2022-07-29T03:17:21.272Z,3.88
2022-07-29T03:19:50.485Z,3.90
2022-07-29T03:22:19.228Z,3.75
2022-07-29T03:24:48.323Z,4.13
2022-07-29T03:27:16.784Z,3.80
2022-07-29T03:29:50.556Z,3.95
2022-07-29T03:32:25.191Z,3.95
2022-07-29T03:34:54.217Z,4.35
2022-07-29T03:37:22.770Z,4.40
2022-07-29T03:39:53.392Z,4.53
2022-07-29T03:42:28.840Z,4.28
2022-07-29T03:45:00.967Z,5.25
2022-07-29T03:47:49.940Z,4.20
2022-07-29T03:50:22.463Z,4.07
2022-07-29T03:52:51.637Z,4.13
2022-07-29T03:55:20.360Z,4.68
2022-07-29T03:57:50.790Z,4.40
2022-07-29T04:00:20.479Z,4.30
2022-07-29T04:02:50.405Z,3.70
2022-07-29T04:05:19.508Z,4.18
2022-07-29T04:07:49.433Z,4.22
2022-07-29T04:10:30.612Z,3.97
2022-07-29T04:13:01.053Z,4.30
2022-07-29T04:15:31.297Z,4.30
2022-07-29T04:18:01.857Z,4.00
2022-07-29T04:20:30.432Z,4.10
2022-07-29T04:22:58.876Z,3.95
2022-07-29T04:25:27.473Z,3.92
2022-07-29T04:28:05.035Z,4.63
2022-07-29T04:30:34.873Z,4.10
2022-07-29T04:33:06.759Z,3.92
2022-07-29T04:35:38.923Z,4.35
2022-07-29T04:38:18.291Z,4.35
2022-07-29T04:40:47.259Z,4.35
2022-07-29T04:43:22.458Z,4.00
2022-07-29T04:45:52.283Z,4.80
2022-07-29T04:48:28.359Z,3.88
2022-07-29T04:50:57.683Z,3.55
2022-07-29T04:53:27.651Z,4.03
2022-07-29T04:55:56.102Z,3.92
2022-07-29T04:58:25.327Z,4.20
2022-07-29T05:00:53.882Z,4.38
2022-07-29T05:03:23.704Z,5.88
2022-07-29T05:05:52.265Z,4.57
2022-07-29T05:08:20.740Z,4.63
2022-07-29T05:10:49.598Z,4.63
2022-07-29T05:13:18.133Z,4.80
2022-07-29T05:15:46.752Z,4.47
2022-07-29T05:18:15.217Z,4.32
2022-07-29T05:20:45.328Z,3.67
2022-07-29T05:23:15.575Z,4.22
2022-07-29T05:25:44.927Z,3.17
2022-07-29T05:28:13.748Z,3.40
2022-07-29T05:30:42.398Z,2.85
2022-07-29T05:33:34.969Z,2.92
2022-07-29T05:36:01.265Z,4.22
2022-07-29T05:38:30.163Z,3.28
2022-07-29T05:41:00.084Z,2.95
2022-07-29T05:43:29.162Z,3.10
2022-07-29T05:45:58.400Z,2.80
2022-07-29T05:48:27.411Z,3.33
2022-07-29T05:50:56.523Z,2.83
2022-07-29T05:53:26.621Z,3.00
2022-07-29T05:55:55.636Z,2.70
2022-07-29T05:58:24.269Z,2.78
2022-07-29T06:00:53.486Z,2.85
2022-07-29T06:03:21.946Z,3.00
2022-07-29T06:05:50.658Z,2.85
2022-07-29T06:08:19.317Z,2.38
2022-07-29T06:10:49.224Z,2.95
2022-07-29T06:13:17.890Z,2.88
2022-07-29T06:15:46.433Z,2.80
2022-07-29T06:18:15.233Z,2.65
2022-07-29T06:20:43.990Z,2.85
2022-07-29T06:23:12.467Z,2.45
2022-07-29T06:25:42.686Z,3.63
2022-07-29T06:28:12.656Z,2.63
2022-07-29T06:30:41.313Z,2.85
2022-07-29T06:33:09.856Z,2.35
2022-07-29T06:35:42.422Z,2.90
2022-07-29T06:38:30.881Z,2.88
2022-07-29T06:41:05.919Z,2.60
2022-07-29T06:43:50.495Z,2.17
2022-07-29T06:46:23.610Z,2.70
2022-07-29T06:48:53.519Z,2.70
2022-07-29T06:51:23.833Z,2.60
2022-07-29T06:53:58.087Z,2.20
2022-07-29T06:56:27.834Z,2.20
2022-07-29T06:58:57.881Z,2.95
2022-07-29T07:01:26.500Z,2.20
2022-07-29T07:03:55.110Z,2.50
2022-07-29T07:06:23.532Z,2.78
2022-07-29T07:08:52.089Z,2.45
2022-07-29T07:11:20.514Z,2.60
2022-07-29T07:13:48.994Z,2.78
2022-07-29T07:16:19.148Z,2.45
2022-07-29T07:18:47.746Z,2.42
2022-07-29T07:21:19.277Z,2.80
2022-07-29T07:23:48.084Z,2.70
2022-07-29T07:26:17.274Z,2.58
2022-07-29T07:28:45.732Z,2.50
2022-07-29T07:31:15.190Z,2.63
2022-07-29T07:33:45.009Z,3.47
2022-07-29T07:36:13.554Z,2.78
2022-07-29T07:38:42.047Z,3.20
2022-07-29T07:41:10.601Z,3.63
2022-07-29T07:43:39.173Z,3.13
2022-07-29T07:46:08.037Z,2.72
2022-07-29T07:48:37.876Z,2.67
2022-07-29T07:51:08.273Z,2.97
2022-07-29T07:53:37.057Z,2.50
2022-07-29T07:56:10.968Z,2.75
2022-07-29T07:58:40.562Z,2.80
2022-07-29T08:01:09.504Z,2.53
2022-07-29T08:03:38.893Z,2.80
2022-07-29T08:06:08.978Z,2.85
2022-07-29T08:08:37.917Z,2.80
2022-07-29T08:11:09.746Z,2.60
2022-07-29T08:13:40.232Z,2.70
2022-07-29T08:16:13.944Z,2.97
2022-07-29T08:18:44.531Z,3.40
2022-07-29T08:21:15.934Z,2.75
2022-07-29T08:23:58.929Z,3.13
2022-07-29T08:26:29.501Z,3.03
2022-07-29T08:28:58.045Z,3.35
2022-07-29T08:31:26.748Z,2.83
2022-07-29T08:33:57.064Z,2.65
2022-07-29T08:36:27.148Z,3.10
2022-07-29T08:38:55.674Z,3.10
2022-07-29T08:41:25.128Z,2.80
2022-07-29T08:43:54.401Z,2.80
2022-07-29T08:46:23.920Z,3.13
2022-07-29T08:48:52.527Z,3.00
2022-07-29T08:51:22.677Z,2.88
2022-07-29T08:53:53.076Z,3.00
2022-07-29T08:56:22.891Z,3.00
2022-07-29T08:58:52.695Z,2.85
2022-07-29T09:01:36.134Z,3.17
2022-07-29T09:04:14.132Z,3.00
2022-07-29T09:06:47.332Z,2.97
2022-07-29T09:09:18.140Z,3.05
2022-07-29T09:11:46.675Z,2.97
2022-07-29T09:14:16.263Z,3.53
2022-07-29T09:16:56.110Z,4.40
2022-07-29T09:19:30.331Z,3.30
2022-07-29T09:22:00.554Z,3.40
2022-07-29T09:24:45.600Z,3.63
2022-07-29T09:27:23.020Z,3.80
2022-07-29T09:30:02.481Z,3.85
2022-07-29T09:32:32.324Z,3.20
2022-07-29T09:35:21.905Z,3.03
2022-07-29T09:37:50.997Z,3.15
2022-07-29T09:40:23.403Z,3.92
2022-07-29T09:42:53.810Z,3.15
2022-07-29T09:45:31.642Z,3.30
2022-07-29T09:48:03.864Z,2.97
2022-07-29T09:50:40.861Z,3.58
2022-07-29T09:53:11.545Z,3.17
2022-07-29T09:55:52.059Z,3.38
2022-07-29T09:58:22.389Z,3.50
2022-07-29T10:00:53.019Z,3.20
2022-07-29T10:03:22.591Z,3.10
2022-07-29T10:06:08.407Z,3.15
2022-07-29T10:08:37.141Z,3.17
2022-07-29T10:11:18.582Z,3.40
2022-07-29T10:13:49.371Z,3.05
2022-07-29T10:16:18.863Z,3.58
2022-07-29T10:18:48.341Z,3.40
2022-07-29T10:21:35.074Z,2.88
2022-07-29T10:24:07.587Z,3.40
2022-07-29T10:26:47.111Z,3.60
2022-07-29T10:29:15.609Z,3.22
2022-07-29T10:31:52.949Z,3.40
2022-07-29T10:34:34.015Z,3.72
2022-07-29T10:37:12.637Z,3.53
2022-07-29T10:39:55.750Z,4.00
2022-07-29T10:42:34.101Z,3.50
2022-07-29T10:45:06.359Z,3.58
2022-07-29T10:47:35.567Z,3.75
2022-07-29T10:50:07.226Z,3.30
2022-07-29T10:52:57.520Z,3.90
2022-07-29T10:55:47.750Z,3.78
2022-07-29T10:58:20.458Z,4.03
2022-07-29T11:00:51.477Z,3.65
2022-07-29T11:03:49.542Z,3.70
2022-07-29T11:06:26.626Z,3.92
2022-07-29T11:09:20.307Z,3.88
2022-07-29T11:11:54.585Z,4.55
2022-07-29T11:14:59.050Z,3.97
2022-07-29T11:17:27.682Z,3.90
2022-07-29T11:20:42.372Z,3.47
2022-07-29T11:23:27.498Z,3.50
2022-07-29T11:26:25.501Z,4.20
2022-07-29T11:29:02.072Z,5.28
2022-07-29T11:31:43.891Z,3.88
2022-07-29T11:34:21.329Z,5.10
2022-07-29T11:37:28.089Z,4.93
2022-07-29T11:40:20.286Z,5.18
2022-07-29T11:42:52.114Z,5.22
2022-07-29T11:45:41.397Z,5.03
2022-07-29T11:48:28.955Z,4.38
2022-07-29T11:51:01.626Z,4.50
2022-07-29T11:53:32.713Z,4.30
2022-07-29T11:56:03.376Z,3.30
2022-07-29T11:58:33.772Z,3.10
2022-07-29T12:01:04.782Z,3.40
2022-07-29T12:03:36.975Z,3.47
2022-07-29T12:06:15.008Z,3.08
2022-07-29T12:08:45.136Z,3.10
2022-07-29T12:11:22.446Z,3.80
2022-07-29T12:13:53.087Z,3.40
2022-07-29T12:16:25.699Z,2.85
2022-07-29T12:19:02.029Z,2.85
2022-07-29T12:21:31.201Z,2.60
2022-07-29T12:24:08.733Z,2.20
2022-07-29T12:26:40.486Z,2.10
2022-07-29T12:29:14.054Z,2.45
2022-07-29T12:31:45.634Z,1.90
2022-07-29T12:34:30.702Z,2.03
2022-07-29T12:36:59.592Z,2.17
2022-07-29T12:39:29.198Z,1.98
2022-07-29T12:42:03.991Z,2.38
2022-07-29T12:44:47.964Z,2.53
2022-07-29T12:47:16.579Z,2.42
2022-07-29T12:49:46.640Z,2.90
2022-07-29T12:52:33.454Z,2.10
2022-07-29T12:55:02.951Z,2.40
2022-07-29T12:57:32.993Z,3.15
2022-07-29T13:00:11.920Z,2.38
2022-07-29T13:02:41.808Z,2.75
2022-07-29T13:05:13.749Z,2.65
2022-07-29T13:07:55.310Z,2.95
2022-07-29T13:10:31.125Z,2.60
2022-07-29T13:13:09.039Z,2.67
2022-07-29T13:15:39.098Z,2.63
2022-07-29T13:18:30.002Z,2.50
2022-07-29T13:20:59.017Z,2.60
2022-07-29T13:23:27.503Z,2.80
2022-07-29T13:25:55.968Z,2.70
2022-07-29T13:28:24.503Z,2.60
2022-07-29T13:30:53.410Z,2.88
2022-07-29T13:33:21.914Z,3.03
2022-07-29T13:35:51.827Z,2.90
2022-07-29T13:38:20.341Z,4.22
2022-07-29T13:40:48.889Z,3.00
2022-07-29T13:43:17.485Z,3.15
2022-07-29T13:45:46.022Z,3.22
2022-07-29T13:48:14.542Z,3.50
2022-07-29T13:50:42.990Z,3.05
2022-07-29T13:53:17.479Z,3.05
2022-07-29T13:55:46.839Z,3.22
2022-07-29T13:58:16.799Z,3.40
2022-07-29T14:00:45.198Z,4.30
2022-07-29T14:03:13.923Z,3.95
2022-07-29T14:05:42.546Z,3.97
2022-07-29T14:08:13.160Z,3.42
2022-07-29T14:10:41.822Z,3.47
2022-07-29T14:13:24.305Z,3.63
2022-07-29T14:15:54.114Z,3.40
2022-07-29T14:18:22.597Z,3.60
2022-07-29T14:20:52.004Z,3.80
2022-07-29T14:23:22.277Z,4.30
2022-07-29T14:25:50.885Z,3.88
2022-07-29T14:28:19.793Z,3.60
2022-07-29T14:30:48.888Z,4.63
2022-07-29T14:33:17.430Z,4.40
2022-07-29T14:35:47.290Z,4.10
2022-07-29T14:38:15.921Z,4.65
2022-07-29T14:40:47.488Z,5.20
2022-07-29T14:43:19.595Z,5.53
2022-07-29T14:45:50.820Z,5.65
2022-07-29T14:48:19.399Z,5.35
2022-07-29T14:50:47.863Z,5.65
2022-07-29T14:53:16.559Z,6.10
2022-07-29T14:55:46.877Z,5.95
2022-07-29T14:58:16.676Z,5.22
2022-07-29T15:00:45.393Z,6.05
2022-07-29T15:03:23.776Z,5.68
2022-07-29T15:05:52.831Z,4.50
2022-07-29T15:08:21.512Z,4.78
2022-07-29T15:10:51.664Z,4.50
2022-07-29T15:13:20.161Z,4.68
2022-07-29T15:15:48.809Z,5.10
2022-07-29T15:18:25.804Z,4.88
2022-07-29T15:20:54.524Z,4.90
2022-07-29T15:23:23.000Z,4.57
2022-07-29T15:25:52.872Z,5.15
2022-07-29T15:28:21.262Z,4.78
2022-07-29T15:30:50.115Z,5.50
2022-07-29T15:33:19.155Z,5.00
2022-07-29T15:35:47.574Z,4.20
2022-07-29T15:38:16.151Z,4.95
2022-07-29T15:40:45.484Z,4.20
2022-07-29T15:43:15.496Z,4.30
2022-07-29T15:46:07.284Z,4.70
2022-07-29T15:48:39.836Z,4.68
2022-07-29T15:51:08.550Z,4.88
2022-07-29T15:53:37.155Z,4.35
2022-07-29T15:56:06.387Z,4.75
2022-07-29T15:58:36.374Z,4.03
2022-07-29T16:01:04.930Z,4.30
2022-07-29T16:03:33.626Z,4.72
2022-07-29T16:06:02.198Z,4.15
2022-07-29T16:08:30.713Z,4.38
2022-07-29T16:10:59.134Z,4.72
2022-07-29T16:13:27.808Z,4.38
2022-07-29T16:16:02.352Z,4.28
2022-07-29T16:18:31.982Z,4.80
2022-07-29T16:21:00.419Z,3.97
2022-07-29T16:23:29.006Z,3.92
2022-07-29T16:26:00.012Z,4.30
2022-07-29T16:28:29.338Z,4.10
2022-07-29T16:30:59.564Z,3.90
2022-07-29T16:33:28.608Z,4.15
2022-07-29T16:36:18.498Z,3.30
2022-07-29T16:38:47.855Z,4.03
2022-07-29T16:41:16.613Z,3.85
2022-07-29T16:43:45.112Z,3.50
2022-07-29T16:46:18.487Z,3.55
2022-07-29T16:48:47.841Z,3.85
2022-07-29T16:51:17.541Z,4.00
2022-07-29T16:53:45.989Z,3.88
2022-07-29T16:56:18.376Z,4.05
2022-07-29T16:58:47.118Z,4.32
2022-07-29T17:01:17.805Z,3.92
2022-07-29T17:04:00.822Z,3.92
2022-07-29T17:06:29.820Z,4.38
2022-07-29T17:08:58.312Z,3.60
2022-07-29T17:11:53.171Z,3.85
2022-07-29T17:14:15.501Z,4.60
2022-07-29T17:16:51.706Z,3.90
2022-07-29T17:19:33.815Z,3.75
2022-07-29T17:22:10.509Z,5.00
2022-07-29T17:24:41.468Z,4.03
2022-07-29T17:27:10.571Z,3.72
2022-07-29T17:29:39.746Z,4.20
2022-07-29T17:32:10.603Z,3.35
2022-07-29T17:34:40.025Z,3.38
2022-07-29T17:37:10.691Z,3.95
2022-07-29T17:39:40.901Z,3.70
2022-07-29T17:42:12.496Z,3.95
2022-07-29T17:44:41.755Z,3.60
2022-07-29T17:47:16.002Z,4.60
2022-07-29T17:49:45.890Z,4.35
2022-07-29T17:52:15.950Z,3.85
2022-07-29T17:54:44.377Z,4.30
2022-07-29T17:57:12.932Z,4.35
2022-07-29T17:59:41.422Z,4.20
2022-07-29T18:02:12.618Z,3.95
2022-07-29T18:04:41.340Z,4.10
2022-07-29T18:07:10.579Z,4.00
2022-07-29T18:09:39.136Z,4.00
2022-07-29T18:12:09.154Z,4.03
2022-07-29T18:14:37.766Z,3.75
2022-07-29T18:17:06.243Z,3.55
2022-07-29T18:19:36.010Z,3.83
2022-07-29T18:22:05.679Z,3.63
2022-07-29T18:24:35.775Z,3.92
2022-07-29T18:27:04.341Z,4.15
2022-07-29T18:29:32.891Z,4.00
2022-07-29T18:32:01.645Z,3.60
2022-07-29T18:34:30.586Z,3.75
2022-07-29T18:37:00.965Z,4.22
2022-07-29T18:39:29.992Z,3.78
2022-07-29T18:41:58.819Z,4.22
2022-07-29T18:44:27.383Z,3.83
2022-07-29T18:46:56.836Z,4.50
2022-07-29T18:49:27.526Z,4.35
2022-07-29T18:51:56.846Z,4.60
2022-07-29T18:54:26.941Z,4.72
2022-07-29T18:56:55.752Z,4.50
2022-07-29T18:59:24.985Z,4.15
2022-07-29T19:01:54.457Z,4.88
2022-07-29T19:04:23.258Z,4.30
2022-07-29T19:06:51.890Z,4.50
2022-07-29T19:09:20.450Z,4.18
2022-07-29T19:11:55.522Z,4.20
2022-07-29T19:14:24.500Z,3.83
2022-07-29T19:16:52.922Z,4.18
2022-07-29T19:19:21.539Z,4.10
2022-07-29T19:21:50.163Z,4.43
2022-07-29T19:24:18.701Z,4.10
2022-07-29T19:26:47.562Z,4.65
2022-07-29T19:29:17.909Z,4.38
2022-07-29T19:31:46.645Z,3.95
2022-07-29T19:34:15.228Z,4.68
2022-07-29T19:36:43.764Z,4.32
2022-07-29T19:39:12.797Z,4.68
2022-07-29T19:41:41.350Z,4.05
2022-07-29T19:44:11.337Z,4.38
2022-07-29T19:46:41.715Z,4.63
2022-07-29T19:49:11.001Z,4.10
2022-07-29T19:51:39.629Z,4.65
2022-07-29T19:54:08.513Z,3.88
2022-07-29T19:56:40.092Z,3.83
2022-07-29T19:59:10.746Z,3.72
2022-07-29T20:01:42.416Z,3.90
2022-07-29T20:04:10.883Z,3.67
2022-07-29T20:06:39.441Z,6.40
2022-07-29T20:09:08.026Z,4.95
2022-07-29T20:11:45.754Z,5.43
2022-07-29T20:14:14.215Z,4.72
2022-07-29T20:16:44.353Z,4.72
2022-07-29T20:19:13.041Z,4.30
2022-07-29T20:21:41.541Z,4.38
2022-07-29T20:24:11.153Z,4.70
2022-07-29T20:26:39.765Z,4.60
2022-07-29T20:29:08.294Z,4.35
2022-07-29T20:31:37.039Z,4.90
2022-07-29T20:34:06.989Z,4.75
2022-07-29T20:36:35.622Z,5.00
2022-07-29T20:39:04.662Z,4.60
2022-07-29T20:41:33.930Z,4.25
2022-07-29T20:44:02.488Z,4.57
2022-07-29T20:46:31.064Z,4.38
2022-07-29T20:48:59.691Z,4.10
2022-07-29T20:51:29.643Z,4.28
2022-07-29T20:53:58.242Z,3.97
2022-07-29T20:56:26.838Z,7.70
2022-07-29T20:58:55.411Z,4.07
2022-07-29T21:01:23.957Z,4.30
2022-07-29T21:03:52.469Z,4.07
2022-07-29T21:06:21.030Z,3.80
2022-07-29T21:08:51.816Z,3.83
2022-07-29T21:11:42.827Z,4.07
2022-07-29T21:14:08.928Z,3.75
2022-07-29T21:16:38.575Z,3.90
2022-07-29T21:19:08.591Z,4.32
2022-07-29T21:21:37.117Z,4.60
2022-07-29T21:24:12.123Z,4.57
2022-07-29T21:26:40.910Z,4.55
2022-07-29T21:29:08.407Z,3.80
2022-07-29T21:31:37.008Z,4.70
2022-07-29T21:34:05.530Z,4.90
2022-07-29T21:36:49.390Z,4.40
2022-07-29T21:39:19.248Z,4.03
2022-07-29T21:41:47.797Z,3.80
2022-07-29T21:44:16.251Z,4.20
2022-07-29T21:46:45.244Z,4.07
2022-07-29T21:49:13.730Z,3.95
2022-07-29T21:51:42.360Z,4.20
2022-07-29T21:54:10.795Z,3.90
2022-07-29T21:56:40.738Z,4.30
2022-07-29T21:59:10.899Z,4.00
2022-07-29T22:01:41.557Z,4.05
2022-07-29T22:04:10.041Z,3.75
2022-07-29T22:06:38.626Z,4.10
2022-07-29T22:09:07.479Z,3.80
2022-07-29T22:11:36.935Z,3.55
2022-07-29T22:14:07.336Z,4.10
2022-07-29T22:16:36.179Z,4.10
2022-07-29T22:19:05.141Z,4.03
2022-07-29T22:21:33.684Z,10.93
2022-07-29T22:24:02.409Z,5.13
2022-07-29T22:26:33.920Z,4.45
2022-07-29T22:29:02.489Z,4.90
2022-07-29T22:31:32.350Z,5.05
2022-07-29T22:34:00.800Z,5.47
2022-07-29T22:36:29.308Z,5.40
2022-07-29T22:38:57.694Z,5.60
2022-07-29T22:41:26.214Z,5.90
2022-07-29T22:43:54.830Z,5.90
2022-07-29T22:46:24.322Z,6.50
2022-07-29T22:48:54.352Z,6.32
2022-07-29T22:51:22.991Z,7.40
2022-07-29T22:53:51.630Z,6.78
2022-07-29T22:56:20.981Z,6.90
2022-07-29T22:58:50.043Z,7.03
2022-07-29T23:01:37.258Z,7.15
2022-07-29T23:04:08.344Z,6.50
2022-07-29T23:06:36.951Z,6.43
2022-07-29T23:09:05.702Z,6.07
2022-07-29T23:11:34.160Z,5.57
2022-07-29T23:14:02.641Z,6.15
2022-07-29T23:16:31.206Z,6.28
2022-07-29T23:18:59.653Z,6.18
2022-07-29T23:21:29.855Z,5.65
2022-07-29T23:23:58.296Z,5.88
2022-07-29T23:26:28.094Z,5.30
2022-07-29T23:28:56.607Z,6.30
2022-07-29T23:31:25.150Z,5.68
2022-07-29T23:33:53.782Z,6.18
2022-07-29T23:36:22.308Z,6.00
2022-07-29T23:38:52.509Z,4.90
2022-07-29T23:41:21.494Z,4.90
2022-07-29T23:43:50.408Z,5.50
2022-07-29T23:46:18.989Z,5.70
2022-07-29T23:48:52.530Z,5.03
2022-07-29T23:51:21.621Z,5.78
2022-07-29T23:53:53.888Z,5.00
2022-07-29T23:56:23.259Z,4.55
2022-07-29T23:58:52.079Z,4.78
